Portada
METAR-TAF:

METAR-TAF

Aeroports :

Aeroport Internacional de Nador

Nador, Marroc

latitud: 34-59-20N, longitud: 003-01-42W, altitud: 175 m

Observació

L'informe es va fer fa 1 hora i 2 minuts, a les 13:00 UTC
Vent 9 kt del Nord-Est
Temperatura 26°C
Humitat 51%
Pressió 1014 hPa
Visibilitat 10 km o més
sense núvols per sota de 1500 mi sense presència de cumulonimbus.

METAR: GMMW 021300Z 04009KT CAVOK 26/15 Q1014 NOSIG

Hora: 15:02 (14:02 UTC)

Pronòstic

L'informe es va fer fa 3 hores i 2 minuts, a les 11:00 UTC
Pronòstic vàlid del 02 a les 12 UTC al 03 a les 18 UTC
Vent 7 kt del Nord-Est
Visibilitat 10 km o més
sense núvols per sota de 1500 mi sense presència de cumulonimbus.

TAF: GMMW 021100Z 0212/0318 05007KT CAVOK

Observacions i pronòstics meteorològics de més de 4000 aeroports (METAR i TAF).

Les estacions disponibles són els punts grocs i vermells al mapa.

Posi el ratolí al punt desitjat per veure el nom de l'estació.

Feu clic per veure les observacions i els pronòstics meteorològics.

Per canviar el mapa: feu clic els botons verds amb una creu de color negre per apropar; al botó verd amb un guió per allunyar la imatge; o en les fletxes verdes per a mapes adjacents.


METAR-TAF: